sensor_id;sensor_type;location;lat;lon;timestamp;temperature;humidity
5617;DHT22;2830;50.656;7.568;2024-02-14T00:01:07;7.20;99.90
5617;DHT22;2830;50.656;7.568;2024-02-14T00:03:36;7.20;99.90
5617;DHT22;2830;50.656;7.568;2024-02-14T00:06:05;7.20;99.90
5617;DHT22;2830;50.656;7.568;2024-02-14T00:08:32;7.20;99.90
5617;DHT22;2830;50.656;7.568;2024-02-14T00:10:59;7.20;99.90
5617;DHT22;2830;50.656;7.568;2024-02-14T00:13:27;7.20;99.90
5617;DHT22;2830;50.656;7.568;2024-02-14T00:15:54;7.20;99.90
5617;DHT22;2830;50.656;7.568;2024-02-14T00:18:23;7.20;99.90
5617;DHT22;2830;50.656;7.568;2024-02-14T00:20:50;7.20;99.90
5617;DHT22;2830;50.656;7.568;2024-02-14T00:23:17;7.20;99.90
5617;DHT22;2830;50.656;7.568;2024-02-14T00:25:44;7.20;99.90
5617;DHT22;2830;50.656;7.568;2024-02-14T00:28:11;7.20;99.90
5617;DHT22;2830;50.656;7.568;2024-02-14T00:30:39;7.20;99.90
5617;DHT22;2830;50.656;7.568;2024-02-14T00:33:05;7.30;99.90
5617;DHT22;2830;50.656;7.568;2024-02-14T00:35:34;7.30;99.90
5617;DHT22;2830;50.656;7.568;2024-02-14T00:38:01;7.30;99.90
5617;DHT22;2830;50.656;7.568;2024-02-14T00:40:27;7.30;99.90
5617;DHT22;2830;50.656;7.568;2024-02-14T00:42:54;7.30;99.90
5617;DHT22;2830;50.656;7.568;2024-02-14T00:45:21;7.40;99.90
5617;DHT22;2830;50.656;7.568;2024-02-14T00:47:48;7.40;99.90
5617;DHT22;2830;50.656;7.568;2024-02-14T00:50:15;7.40;99.90
5617;DHT22;2830;50.656;7.568;2024-02-14T00:52:43;7.40;99.90
5617;DHT22;2830;50.656;7.568;2024-02-14T00:55:10;7.40;99.90
5617;DHT22;2830;50.656;7.568;2024-02-14T00:57:37;7.40;99.90
5617;DHT22;2830;50.656;7.568;2024-02-14T01:00:05;7.50;99.90
5617;DHT22;2830;50.656;7.568;2024-02-14T01:02:33;7.50;99.90
5617;DHT22;2830;50.656;7.568;2024-02-14T01:05:00;7.50;99.90
5617;DHT22;2830;50.656;7.568;2024-02-14T01:07:27;7.50;99.90
5617;DHT22;2830;50.656;7.568;2024-02-14T01:09:54;7.50;99.90
5617;DHT22;2830;50.656;7.568;2024-02-14T01:12:21;7.50;99.90
5617;DHT22;2830;50.656;7.568;2024-02-14T01:14:48;7.50;99.90
5617;DHT22;2830;50.656;7.568;2024-02-14T01:17:15;7.50;99.90
5617;DHT22;2830;50.656;7.568;2024-02-14T01:19:42;7.60;99.90
5617;DHT22;2830;50.656;7.568;2024-02-14T01:22:10;7.60;99.90
5617;DHT22;2830;50.656;7.568;2024-02-14T01:24:37;7.60;99.90
5617;DHT22;2830;50.656;7.568;2024-02-14T01:27:04;7.60;99.90
5617;DHT22;2830;50.656;7.568;2024-02-14T01:29:32;7.60;99.90
5617;DHT22;2830;50.656;7.568;2024-02-14T01:31:59;7.60;99.90
5617;DHT22;2830;50.656;7.568;2024-02-14T01:34:26;7.60;99.90
5617;DHT22;2830;50.656;7.568;2024-02-14T01:36:55;7.60;99.90
5617;DHT22;2830;50.656;7.568;2024-02-14T01:39:22;7.60;99.90
5617;DHT22;2830;50.656;7.568;2024-02-14T01:41:49;7.60;99.90
5617;DHT22;2830;50.656;7.568;2024-02-14T01:44:17;7.50;99.90
5617;DHT22;2830;50.656;7.568;2024-02-14T01:46:44;7.50;99.90
5617;DHT22;2830;50.656;7.568;2024-02-14T01:49:12;7.60;99.90
5617;DHT22;2830;50.656;7.568;2024-02-14T01:51:40;7.50;99.90
5617;DHT22;2830;50.656;7.568;2024-02-14T01:54:10;7.50;99.90
5617;DHT22;2830;50.656;7.568;2024-02-14T01:56:38;7.50;99.90
5617;DHT22;2830;50.656;7.568;2024-02-14T01:59:06;7.50;99.90
5617;DHT22;2830;50.656;7.568;2024-02-14T02:01:33;7.50;99.90
5617;DHT22;2830;50.656;7.568;2024-02-14T02:04:01;7.50;99.90
5617;DHT22;2830;50.656;7.568;2024-02-14T02:06:28;7.50;99.90
5617;DHT22;2830;50.656;7.568;2024-02-14T02:08:57;7.50;99.90
5617;DHT22;2830;50.656;7.568;2024-02-14T02:11:25;7.50;99.90
5617;DHT22;2830;50.656;7.568;2024-02-14T02:13:52;7.60;99.90
5617;DHT22;2830;50.656;7.568;2024-02-14T02:16:19;7.60;99.90
5617;DHT22;2830;50.656;7.568;2024-02-14T02:18:47;7.60;99.90
5617;DHT22;2830;50.656;7.568;2024-02-14T02:21:15;7.60;99.90
5617;DHT22;2830;50.656;7.568;2024-02-14T02:23:47;7.60;99.90
5617;DHT22;2830;50.656;7.568;2024-02-14T02:26:14;7.60;99.90
5617;DHT22;2830;50.656;7.568;2024-02-14T02:28:41;7.60;99.90
5617;DHT22;2830;50.656;7.568;2024-02-14T02:31:09;7.60;99.90
5617;DHT22;2830;50.656;7.568;2024-02-14T02:33:37;7.60;99.90
5617;DHT22;2830;50.656;7.568;2024-02-14T02:36:04;7.60;99.90
5617;DHT22;2830;50.656;7.568;2024-02-14T02:38:33;7.60;99.90
5617;DHT22;2830;50.656;7.568;2024-02-14T02:41:00;7.60;99.90
5617;DHT22;2830;50.656;7.568;2024-02-14T02:43:27;7.60;99.90
5617;DHT22;2830;50.656;7.568;2024-02-14T02:45:55;7.60;99.90
5617;DHT22;2830;50.656;7.568;2024-02-14T02:48:23;7.60;99.90
5617;DHT22;2830;50.656;7.568;2024-02-14T02:50:51;7.60;99.90
5617;DHT22;2830;50.656;7.568;2024-02-14T02:53:18;7.60;99.90
5617;DHT22;2830;50.656;7.568;2024-02-14T02:55:45;7.50;99.90
5617;DHT22;2830;50.656;7.568;2024-02-14T02:58:12;7.50;99.90
5617;DHT22;2830;50.656;7.568;2024-02-14T03:00:40;7.50;99.90
5617;DHT22;2830;50.656;7.568;2024-02-14T03:03:10;7.40;99.90
5617;DHT22;2830;50.656;7.568;2024-02-14T03:05:37;7.40;99.90
5617;DHT22;2830;50.656;7.568;2024-02-14T03:08:06;7.40;99.90
5617;DHT22;2830;50.656;7.568;2024-02-14T03:10:34;7.30;99.90
5617;DHT22;2830;50.656;7.568;2024-02-14T03:13:01;7.40;99.90
5617;DHT22;2830;50.656;7.568;2024-02-14T03:15:28;7.40;99.90
5617;DHT22;2830;50.656;7.568;2024-02-14T03:17:55;7.40;99.90
5617;DHT22;2830;50.656;7.568;2024-02-14T03:20:22;7.40;99.90
5617;DHT22;2830;50.656;7.568;2024-02-14T03:22:50;7.50;99.90
5617;DHT22;2830;50.656;7.568;2024-02-14T03:25:18;7.40;99.90
5617;DHT22;2830;50.656;7.568;2024-02-14T03:27:45;7.40;99.90
5617;DHT22;2830;50.656;7.568;2024-02-14T03:30:15;7.40;99.90
5617;DHT22;2830;50.656;7.568;2024-02-14T03:32:43;7.40;99.90
5617;DHT22;2830;50.656;7.568;2024-02-14T03:35:11;7.40;99.90
5617;DHT22;2830;50.656;7.568;2024-02-14T03:37:44;7.40;99.90
5617;DHT22;2830;50.656;7.568;2024-02-14T03:40:14;7.40;99.90
5617;DHT22;2830;50.656;7.568;2024-02-14T03:42:41;7.40;99.90
5617;DHT22;2830;50.656;7.568;2024-02-14T03:45:09;7.50;99.90
5617;DHT22;2830;50.656;7.568;2024-02-14T03:47:36;7.50;99.90
5617;DHT22;2830;50.656;7.568;2024-02-14T03:50:10;7.50;99.90
5617;DHT22;2830;50.656;7.568;2024-02-14T03:52:37;7.40;99.90
5617;DHT22;2830;50.656;7.568;2024-02-14T03:55:05;7.50;99.90
5617;DHT22;2830;50.656;7.568;2024-02-14T03:57:32;7.50;99.90
5617;DHT22;2830;50.656;7.568;2024-02-14T04:00:02;7.50;99.90
5617;DHT22;2830;50.656;7.568;2024-02-14T04:02:31;7.50;99.90
5617;DHT22;2830;50.656;7.568;2024-02-14T04:04:58;7.50;99.90
5617;DHT22;2830;50.656;7.568;2024-02-14T04:07:25;7.50;99.90
5617;DHT22;2830;50.656;7.568;2024-02-14T04:09:53;7.50;99.90
5617;DHT22;2830;50.656;7.568;2024-02-14T04:12:20;7.50;99.90
5617;DHT22;2830;50.656;7.568;2024-02-14T04:14:47;7.50;99.90
5617;DHT22;2830;50.656;7.568;2024-02-14T04:17:14;7.50;99.90
5617;DHT22;2830;50.656;7.568;2024-02-14T04:19:41;7.50;99.90
5617;DHT22;2830;50.656;7.568;2024-02-14T04:22:08;7.50;99.90
5617;DHT22;2830;50.656;7.568;2024-02-14T04:24:35;7.50;99.90
5617;DHT22;2830;50.656;7.568;2024-02-14T04:27:03;7.50;99.90
5617;DHT22;2830;50.656;7.568;2024-02-14T04:29:31;7.50;99.90
5617;DHT22;2830;50.656;7.568;2024-02-14T04:32:01;7.50;99.90
5617;DHT22;2830;50.656;7.568;2024-02-14T04:34:29;7.50;99.90
5617;DHT22;2830;50.656;7.568;2024-02-14T04:36:57;7.50;99.90
5617;DHT22;2830;50.656;7.568;2024-02-14T04:39:24;7.50;99.90
5617;DHT22;2830;50.656;7.568;2024-02-14T04:41:51;7.50;99.90
5617;DHT22;2830;50.656;7.568;2024-02-14T04:44:28;7.50;99.90
5617;DHT22;2830;50.656;7.568;2024-02-14T04:46:55;7.50;99.90
5617;DHT22;2830;50.656;7.568;2024-02-14T04:49:23;7.50;99.90
5617;DHT22;2830;50.656;7.568;2024-02-14T04:51:51;7.50;99.90
5617;DHT22;2830;50.656;7.568;2024-02-14T04:54:18;7.50;99.90
5617;DHT22;2830;50.656;7.568;2024-02-14T04:56:45;7.50;99.90
5617;DHT22;2830;50.656;7.568;2024-02-14T04:59:14;7.50;99.90
5617;DHT22;2830;50.656;7.568;2024-02-14T05:01:41;7.50;99.90
5617;DHT22;2830;50.656;7.568;2024-02-14T05:04:08;7.50;99.90
5617;DHT22;2830;50.656;7.568;2024-02-14T05:06:35;7.50;99.90
5617;DHT22;2830;50.656;7.568;2024-02-14T05:09:03;7.60;99.90
5617;DHT22;2830;50.656;7.568;2024-02-14T05:11:30;7.50;99.90
5617;DHT22;2830;50.656;7.568;2024-02-14T05:13:57;7.60;99.90
5617;DHT22;2830;50.656;7.568;2024-02-14T05:16:24;7.60;99.90
5617;DHT22;2830;50.656;7.568;2024-02-14T05:18:51;7.60;99.90
5617;DHT22;2830;50.656;7.568;2024-02-14T05:21:20;7.60;99.90
5617;DHT22;2830;50.656;7.568;2024-02-14T05:23:48;7.60;99.90
5617;DHT22;2830;50.656;7.568;2024-02-14T05:26:16;7.60;99.90
5617;DHT22;2830;50.656;7.568;2024-02-14T05:28:43;7.60;99.90
5617;DHT22;2830;50.656;7.568;2024-02-14T05:31:10;7.60;99.90
5617;DHT22;2830;50.656;7.568;2024-02-14T05:33:37;7.60;99.90
5617;DHT22;2830;50.656;7.568;2024-02-14T05:36:04;7.60;99.90
5617;DHT22;2830;50.656;7.568;2024-02-14T05:38:33;7.60;99.90
5617;DHT22;2830;50.656;7.568;2024-02-14T05:41:01;7.70;99.90
5617;DHT22;2830;50.656;7.568;2024-02-14T05:43:28;7.60;99.90
5617;DHT22;2830;50.656;7.568;2024-02-14T05:45:55;7.70;99.90
5617;DHT22;2830;50.656;7.568;2024-02-14T05:48:22;7.70;99.90
5617;DHT22;2830;50.656;7.568;2024-02-14T05:50:49;7.70;99.90
5617;DHT22;2830;50.656;7.568;2024-02-14T05:53:16;7.60;99.90
5617;DHT22;2830;50.656;7.568;2024-02-14T05:55:43;7.70;99.90
5617;DHT22;2830;50.656;7.568;2024-02-14T05:58:10;7.70;99.90
5617;DHT22;2830;50.656;7.568;2024-02-14T06:00:38;7.60;99.90
5617;DHT22;2830;50.656;7.568;2024-02-14T06:03:05;7.70;99.90
5617;DHT22;2830;50.656;7.568;2024-02-14T06:05:34;7.70;99.90
5617;DHT22;2830;50.656;7.568;2024-02-14T06:08:01;7.60;99.90
5617;DHT22;2830;50.656;7.568;2024-02-14T06:10:30;7.70;99.90
5617;DHT22;2830;50.656;7.568;2024-02-14T06:12:57;7.70;99.90
5617;DHT22;2830;50.656;7.568;2024-02-14T06:15:24;7.70;99.90
5617;DHT22;2830;50.656;7.568;2024-02-14T06:17:51;7.70;99.90
5617;DHT22;2830;50.656;7.568;2024-02-14T06:20:18;7.70;99.90
5617;DHT22;2830;50.656;7.568;2024-02-14T06:22:45;7.70;99.90
5617;DHT22;2830;50.656;7.568;2024-02-14T06:25:26;7.70;99.90
5617;DHT22;2830;50.656;7.568;2024-02-14T06:27:53;7.60;99.90
5617;DHT22;2830;50.656;7.568;2024-02-14T06:30:23;7.70;99.90
5617;DHT22;2830;50.656;7.568;2024-02-14T06:32:52;7.60;99.90
5617;DHT22;2830;50.656;7.568;2024-02-14T06:35:19;7.70;99.90
5617;DHT22;2830;50.656;7.568;2024-02-14T06:37:47;7.70;99.90
5617;DHT22;2830;50.656;7.568;2024-02-14T06:40:28;7.70;99.90
5617;DHT22;2830;50.656;7.568;2024-02-14T06:42:56;7.70;99.90
5617;DHT22;2830;50.656;7.568;2024-02-14T06:45:25;7.70;99.90
5617;DHT22;2830;50.656;7.568;2024-02-14T06:47:54;7.70;99.90
5617;DHT22;2830;50.656;7.568;2024-02-14T06:50:21;7.70;99.90
5617;DHT22;2830;50.656;7.568;2024-02-14T06:52:48;7.70;99.90
5617;DHT22;2830;50.656;7.568;2024-02-14T06:55:15;7.70;99.90
5617;DHT22;2830;50.656;7.568;2024-02-14T06:57:42;7.70;99.90
5617;DHT22;2830;50.656;7.568;2024-02-14T07:00:09;7.70;99.90
5617;DHT22;2830;50.656;7.568;2024-02-14T07:02:37;7.60;99.90
5617;DHT22;2830;50.656;7.568;2024-02-14T07:05:04;7.60;99.90
5617;DHT22;2830;50.656;7.568;2024-02-14T07:07:34;7.60;99.90
5617;DHT22;2830;50.656;7.568;2024-02-14T07:10:00;7.60;99.90
5617;DHT22;2830;50.656;7.568;2024-02-14T07:12:28;7.60;99.90
5617;DHT22;2830;50.656;7.568;2024-02-14T07:14:57;7.60;99.90
5617;DHT22;2830;50.656;7.568;2024-02-14T07:17:24;7.70;99.90
5617;DHT22;2830;50.656;7.568;2024-02-14T07:19:52;7.70;99.90
5617;DHT22;2830;50.656;7.568;2024-02-14T07:22:19;7.70;99.90
5617;DHT22;2830;50.656;7.568;2024-02-14T07:24:46;7.80;99.90
5617;DHT22;2830;50.656;7.568;2024-02-14T07:27:14;7.80;99.90
5617;DHT22;2830;50.656;7.568;2024-02-14T07:29:42;7.80;99.90
5617;DHT22;2830;50.656;7.568;2024-02-14T07:32:09;7.80;99.90
5617;DHT22;2830;50.656;7.568;2024-02-14T07:34:40;7.90;99.90
5617;DHT22;2830;50.656;7.568;2024-02-14T07:37:07;7.90;99.90
5617;DHT22;2830;50.656;7.568;2024-02-14T07:39:34;8.00;99.90
5617;DHT22;2830;50.656;7.568;2024-02-14T07:42:05;8.00;99.90
5617;DHT22;2830;50.656;7.568;2024-02-14T07:44:32;8.10;99.90
5617;DHT22;2830;50.656;7.568;2024-02-14T07:46:59;8.10;99.90
5617;DHT22;2830;50.656;7.568;2024-02-14T07:49:30;8.20;99.90
5617;DHT22;2830;50.656;7.568;2024-02-14T07:51:57;8.20;99.90
5617;DHT22;2830;50.656;7.568;2024-02-14T07:54:24;8.20;99.90
5617;DHT22;2830;50.656;7.568;2024-02-14T07:56:51;8.20;99.90
5617;DHT22;2830;50.656;7.568;2024-02-14T07:59:18;8.20;99.90
5617;DHT22;2830;50.656;7.568;2024-02-14T08:01:47;8.20;99.90
5617;DHT22;2830;50.656;7.568;2024-02-14T08:04:14;8.30;99.90
5617;DHT22;2830;50.656;7.568;2024-02-14T08:06:45;8.30;99.90
5617;DHT22;2830;50.656;7.568;2024-02-14T08:09:12;8.40;99.90
5617;DHT22;2830;50.656;7.568;2024-02-14T08:11:40;8.40;99.90
5617;DHT22;2830;50.656;7.568;2024-02-14T08:14:07;8.40;99.90
5617;DHT22;2830;50.656;7.568;2024-02-14T08:16:34;8.50;99.90
5617;DHT22;2830;50.656;7.568;2024-02-14T08:19:02;8.50;99.90
5617;DHT22;2830;50.656;7.568;2024-02-14T08:21:31;8.60;99.90
5617;DHT22;2830;50.656;7.568;2024-02-14T08:23:58;8.60;99.90
5617;DHT22;2830;50.656;7.568;2024-02-14T08:26:27;8.80;99.90
5617;DHT22;2830;50.656;7.568;2024-02-14T08:28:55;9.00;99.90
5617;DHT22;2830;50.656;7.568;2024-02-14T08:31:22;9.10;99.90
5617;DHT22;2830;50.656;7.568;2024-02-14T08:33:49;9.20;99.90
5617;DHT22;2830;50.656;7.568;2024-02-14T08:36:16;9.30;99.90
5617;DHT22;2830;50.656;7.568;2024-02-14T08:38:45;9.30;99.90
5617;DHT22;2830;50.656;7.568;2024-02-14T08:41:12;9.40;99.90
5617;DHT22;2830;50.656;7.568;2024-02-14T08:43:40;9.40;99.90
5617;DHT22;2830;50.656;7.568;2024-02-14T08:46:12;9.50;99.90
5617;DHT22;2830;50.656;7.568;2024-02-14T08:48:40;9.70;99.90
5617;DHT22;2830;50.656;7.568;2024-02-14T08:51:15;9.70;99.90
5617;DHT22;2830;50.656;7.568;2024-02-14T08:53:43;9.60;99.90
5617;DHT22;2830;50.656;7.568;2024-02-14T08:56:12;9.50;99.90
5617;DHT22;2830;50.656;7.568;2024-02-14T08:58:40;9.40;99.90
5617;DHT22;2830;50.656;7.568;2024-02-14T09:01:07;9.50;99.90
5617;DHT22;2830;50.656;7.568;2024-02-14T09:03:44;9.50;99.90
5617;DHT22;2830;50.656;7.568;2024-02-14T09:06:17;9.50;99.90
5617;DHT22;2830;50.656;7.568;2024-02-14T09:08:48;9.50;99.90
5617;DHT22;2830;50.656;7.568;2024-02-14T09:11:17;9.50;99.90
5617;DHT22;2830;50.656;7.568;2024-02-14T09:13:44;9.50;99.90
5617;DHT22;2830;50.656;7.568;2024-02-14T09:16:14;9.50;99.90
5617;DHT22;2830;50.656;7.568;2024-02-14T09:18:42;9.50;99.90
5617;DHT22;2830;50.656;7.568;2024-02-14T09:21:09;9.50;99.90
5617;DHT22;2830;50.656;7.568;2024-02-14T09:23:36;9.60;99.90
5617;DHT22;2830;50.656;7.568;2024-02-14T09:26:07;9.80;99.90
5617;DHT22;2830;50.656;7.568;2024-02-14T09:28:34;9.90;99.90
5617;DHT22;2830;50.656;7.568;2024-02-14T09:31:01;10.00;99.90
5617;DHT22;2830;50.656;7.568;2024-02-14T09:33:31;10.30;99.90
5617;DHT22;2830;50.656;7.568;2024-02-14T09:35:58;10.60;99.90
5617;DHT22;2830;50.656;7.568;2024-02-14T09:38:25;10.70;99.90
5617;DHT22;2830;50.656;7.568;2024-02-14T09:40:53;10.80;99.90
5617;DHT22;2830;50.656;7.568;2024-02-14T09:43:32;10.70;99.90
5617;DHT22;2830;50.656;7.568;2024-02-14T09:46:02;10.70;99.90
5617;DHT22;2830;50.656;7.568;2024-02-14T09:48:30;11.10;99.90
5617;DHT22;2830;50.656;7.568;2024-02-14T09:50:58;11.60;99.90
5617;DHT22;2830;50.656;7.568;2024-02-14T09:53:26;11.80;99.90
5617;DHT22;2830;50.656;7.568;2024-02-14T09:55:55;11.90;99.90
5617;DHT22;2830;50.656;7.568;2024-02-14T09:58:23;12.10;99.90
5617;DHT22;2830;50.656;7.568;2024-02-14T10:00:51;12.30;99.90
5617;DHT22;2830;50.656;7.568;2024-02-14T10:03:18;12.60;99.90
5617;DHT22;2830;50.656;7.568;2024-02-14T10:05:45;12.80;99.90
5617;DHT22;2830;50.656;7.568;2024-02-14T10:08:12;13.00;99.90
5617;DHT22;2830;50.656;7.568;2024-02-14T10:10:39;12.60;99.90
5617;DHT22;2830;50.656;7.568;2024-02-14T10:13:06;12.50;99.90
5617;DHT22;2830;50.656;7.568;2024-02-14T10:15:33;12.50;99.90
5617;DHT22;2830;50.656;7.568;2024-02-14T10:18:03;12.60;99.90
5617;DHT22;2830;50.656;7.568;2024-02-14T10:20:31;12.70;99.90
5617;DHT22;2830;50.656;7.568;2024-02-14T10:23:01;12.90;99.90
5617;DHT22;2830;50.656;7.568;2024-02-14T10:25:34;12.50;99.90
5617;DHT22;2830;50.656;7.568;2024-02-14T10:28:05;12.50;99.90
5617;DHT22;2830;50.656;7.568;2024-02-14T10:30:40;12.60;99.90
5617;DHT22;2830;50.656;7.568;2024-02-14T10:33:08;12.60;99.90
5617;DHT22;2830;50.656;7.568;2024-02-14T10:35:51;12.80;99.90
5617;DHT22;2830;50.656;7.568;2024-02-14T10:38:19;12.70;99.90
5617;DHT22;2830;50.656;7.568;2024-02-14T10:40:47;12.70;99.90
5617;DHT22;2830;50.656;7.568;2024-02-14T10:43:14;12.50;99.90
5617;DHT22;2830;50.656;7.568;2024-02-14T10:45:41;12.40;99.90
5617;DHT22;2830;50.656;7.568;2024-02-14T10:48:12;12.30;99.90
5617;DHT22;2830;50.656;7.568;2024-02-14T10:50:43;12.20;99.90
5617;DHT22;2830;50.656;7.568;2024-02-14T10:53:14;12.10;99.90
5617;DHT22;2830;50.656;7.568;2024-02-14T10:55:48;12.00;99.90
5617;DHT22;2830;50.656;7.568;2024-02-14T10:58:19;12.30;99.90
5617;DHT22;2830;50.656;7.568;2024-02-14T11:00:46;12.20;99.90
5617;DHT22;2830;50.656;7.568;2024-02-14T11:03:14;12.40;99.90
5617;DHT22;2830;50.656;7.568;2024-02-14T11:05:44;12.70;99.90
5617;DHT22;2830;50.656;7.568;2024-02-14T11:08:19;13.20;99.90
5617;DHT22;2830;50.656;7.568;2024-02-14T11:10:54;13.70;99.90
5617;DHT22;2830;50.656;7.568;2024-02-14T11:13:24;13.80;99.90
5617;DHT22;2830;50.656;7.568;2024-02-14T11:15:52;13.90;99.90
5617;DHT22;2830;50.656;7.568;2024-02-14T11:18:28;13.60;99.90
5617;DHT22;2830;50.656;7.568;2024-02-14T11:21:03;13.40;99.90
5617;DHT22;2830;50.656;7.568;2024-02-14T11:23:31;13.30;99.90
5617;DHT22;2830;50.656;7.568;2024-02-14T11:26:03;13.30;99.90
5617;DHT22;2830;50.656;7.568;2024-02-14T11:28:37;13.20;99.90
5617;DHT22;2830;50.656;7.568;2024-02-14T11:31:04;13.20;99.90
5617;DHT22;2830;50.656;7.568;2024-02-14T11:33:32;13.10;99.90
5617;DHT22;2830;50.656;7.568;2024-02-14T11:36:07;12.80;99.90
5617;DHT22;2830;50.656;7.568;2024-02-14T11:38:37;12.50;99.90
5617;DHT22;2830;50.656;7.568;2024-02-14T11:41:06;12.40;99.90
5617;DHT22;2830;50.656;7.568;2024-02-14T11:43:33;12.40;99.90
5617;DHT22;2830;50.656;7.568;2024-02-14T11:46:01;12.10;99.90
5617;DHT22;2830;50.656;7.568;2024-02-14T11:48:31;12.00;99.90
5617;DHT22;2830;50.656;7.568;2024-02-14T11:50:59;12.00;99.90
5617;DHT22;2830;50.656;7.568;2024-02-14T11:53:26;11.90;99.90
5617;DHT22;2830;50.656;7.568;2024-02-14T11:55:55;11.80;99.90
5617;DHT22;2830;50.656;7.568;2024-02-14T11:58:23;11.90;99.90
5617;DHT22;2830;50.656;7.568;2024-02-14T12:00:50;11.80;99.90
5617;DHT22;2830;50.656;7.568;2024-02-14T12:03:18;11.80;99.90
5617;DHT22;2830;50.656;7.568;2024-02-14T12:05:47;11.80;99.90
5617;DHT22;2830;50.656;7.568;2024-02-14T12:08:15;11.80;99.90
5617;DHT22;2830;50.656;7.568;2024-02-14T12:10:43;11.70;99.90
5617;DHT22;2830;50.656;7.568;2024-02-14T12:13:15;11.70;99.90
5617;DHT22;2830;50.656;7.568;2024-02-14T12:15:47;11.60;99.90
5617;DHT22;2830;50.656;7.568;2024-02-14T12:18:15;11.50;99.90
5617;DHT22;2830;50.656;7.568;2024-02-14T12:20:42;11.50;99.90
5617;DHT22;2830;50.656;7.568;2024-02-14T12:23:15;11.50;99.90
5617;DHT22;2830;50.656;7.568;2024-02-14T12:25:45;11.60;99.90
5617;DHT22;2830;50.656;7.568;2024-02-14T12:28:19;11.70;99.90
5617;DHT22;2830;50.656;7.568;2024-02-14T12:33:19;11.80;99.90
5617;DHT22;2830;50.656;7.568;2024-02-14T12:35:50;11.80;99.90
5617;DHT22;2830;50.656;7.568;2024-02-14T12:38:19;11.80;99.90
5617;DHT22;2830;50.656;7.568;2024-02-14T12:40:46;11.70;99.90
5617;DHT22;2830;50.656;7.568;2024-02-14T12:43:15;11.70;99.90
5617;DHT22;2830;50.656;7.568;2024-02-14T12:45:43;11.70;99.90
5617;DHT22;2830;50.656;7.568;2024-02-14T12:48:12;11.60;99.90
5617;DHT22;2830;50.656;7.568;2024-02-14T12:50:40;11.60;99.90
5617;DHT22;2830;50.656;7.568;2024-02-14T12:53:14;11.70;99.90
5617;DHT22;2830;50.656;7.568;2024-02-14T12:55:41;11.60;99.90
5617;DHT22;2830;50.656;7.568;2024-02-14T12:58:08;11.60;99.90
5617;DHT22;2830;50.656;7.568;2024-02-14T13:00:36;11.70;99.90
5617;DHT22;2830;50.656;7.568;2024-02-14T13:03:05;11.70;99.90
5617;DHT22;2830;50.656;7.568;2024-02-14T13:05:32;11.80;99.90
5617;DHT22;2830;50.656;7.568;2024-02-14T13:08:00;11.90;99.90
5617;DHT22;2830;50.656;7.568;2024-02-14T13:10:27;11.90;99.90
5617;DHT22;2830;50.656;7.568;2024-02-14T13:12:58;12.00;99.90
5617;DHT22;2830;50.656;7.568;2024-02-14T13:15:26;12.10;99.90
5617;DHT22;2830;50.656;7.568;2024-02-14T13:17:53;12.20;99.90
5617;DHT22;2830;50.656;7.568;2024-02-14T13:20:20;12.30;99.90
5617;DHT22;2830;50.656;7.568;2024-02-14T13:22:48;12.30;99.90
5617;DHT22;2830;50.656;7.568;2024-02-14T13:25:15;12.30;99.90
5617;DHT22;2830;50.656;7.568;2024-02-14T13:27:43;12.30;99.90
5617;DHT22;2830;50.656;7.568;2024-02-14T13:30:11;12.30;99.90
5617;DHT22;2830;50.656;7.568;2024-02-14T13:32:38;12.20;99.90
5617;DHT22;2830;50.656;7.568;2024-02-14T13:35:06;12.20;99.90
5617;DHT22;2830;50.656;7.568;2024-02-14T13:37:33;12.10;99.90
5617;DHT22;2830;50.656;7.568;2024-02-14T13:40:00;12.10;99.90
5617;DHT22;2830;50.656;7.568;2024-02-14T13:42:28;12.00;99.90
5617;DHT22;2830;50.656;7.568;2024-02-14T13:44:55;11.90;99.90
5617;DHT22;2830;50.656;7.568;2024-02-14T13:47:23;11.90;99.90
5617;DHT22;2830;50.656;7.568;2024-02-14T13:49:51;11.80;99.90
5617;DHT22;2830;50.656;7.568;2024-02-14T13:52:18;11.70;99.90
5617;DHT22;2830;50.656;7.568;2024-02-14T13:54:47;11.60;99.90
5617;DHT22;2830;50.656;7.568;2024-02-14T13:57:14;11.60;99.90
5617;DHT22;2830;50.656;7.568;2024-02-14T13:59:43;11.60;99.90
5617;DHT22;2830;50.656;7.568;2024-02-14T14:02:09;11.70;99.90
5617;DHT22;2830;50.656;7.568;2024-02-14T14:04:36;11.70;99.90
5617;DHT22;2830;50.656;7.568;2024-02-14T14:07:04;11.60;99.90
5617;DHT22;2830;50.656;7.568;2024-02-14T14:09:32;11.60;99.90
5617;DHT22;2830;50.656;7.568;2024-02-14T14:11:59;11.50;99.90
5617;DHT22;2830;50.656;7.568;2024-02-14T14:14:27;11.40;99.90
5617;DHT22;2830;50.656;7.568;2024-02-14T14:16:55;11.30;99.90
5617;DHT22;2830;50.656;7.568;2024-02-14T14:19:22;11.20;99.90
5617;DHT22;2830;50.656;7.568;2024-02-14T14:21:49;11.00;99.90
5617;DHT22;2830;50.656;7.568;2024-02-14T14:24:16;10.80;99.90
5617;DHT22;2830;50.656;7.568;2024-02-14T14:26:43;10.60;99.90
5617;DHT22;2830;50.656;7.568;2024-02-14T14:29:10;10.50;99.90
5617;DHT22;2830;50.656;7.568;2024-02-14T14:31:37;10.40;99.90
5617;DHT22;2830;50.656;7.568;2024-02-14T14:34:04;10.40;99.90
5617;DHT22;2830;50.656;7.568;2024-02-14T14:36:31;10.40;99.90
5617;DHT22;2830;50.656;7.568;2024-02-14T14:38:58;10.40;99.90
5617;DHT22;2830;50.656;7.568;2024-02-14T14:41:26;10.40;99.90
5617;DHT22;2830;50.656;7.568;2024-02-14T14:43:53;10.40;99.90
5617;DHT22;2830;50.656;7.568;2024-02-14T14:46:19;10.40;99.90
5617;DHT22;2830;50.656;7.568;2024-02-14T14:48:47;10.40;99.90
5617;DHT22;2830;50.656;7.568;2024-02-14T14:51:14;10.40;99.90
5617;DHT22;2830;50.656;7.568;2024-02-14T14:53:41;10.50;99.90
5617;DHT22;2830;50.656;7.568;2024-02-14T14:56:08;10.50;99.90
5617;DHT22;2830;50.656;7.568;2024-02-14T14:58:39;10.50;99.90
5617;DHT22;2830;50.656;7.568;2024-02-14T15:01:09;10.50;99.90
5617;DHT22;2830;50.656;7.568;2024-02-14T15:03:36;10.50;99.90
5617;DHT22;2830;50.656;7.568;2024-02-14T15:06:03;10.40;99.90
5617;DHT22;2830;50.656;7.568;2024-02-14T15:08:30;10.40;99.90
5617;DHT22;2830;50.656;7.568;2024-02-14T15:10:57;10.30;99.90
5617;DHT22;2830;50.656;7.568;2024-02-14T15:13:25;10.30;99.90
5617;DHT22;2830;50.656;7.568;2024-02-14T15:15:52;10.30;99.90
5617;DHT22;2830;50.656;7.568;2024-02-14T15:18:20;10.30;99.90
5617;DHT22;2830;50.656;7.568;2024-02-14T15:20:47;10.30;99.90
5617;DHT22;2830;50.656;7.568;2024-02-14T15:23:14;10.20;99.90
5617;DHT22;2830;50.656;7.568;2024-02-14T15:25:41;10.20;99.90
5617;DHT22;2830;50.656;7.568;2024-02-14T15:28:09;10.20;99.90
5617;DHT22;2830;50.656;7.568;2024-02-14T15:30:44;10.20;99.90
5617;DHT22;2830;50.656;7.568;2024-02-14T15:33:30;10.10;99.90
5617;DHT22;2830;50.656;7.568;2024-02-14T15:35:58;10.10;99.90
5617;DHT22;2830;50.656;7.568;2024-02-14T15:38:26;10.10;99.90
5617;DHT22;2830;50.656;7.568;2024-02-14T15:40:54;10.00;99.90
5617;DHT22;2830;50.656;7.568;2024-02-14T15:43:24;10.00;99.90
5617;DHT22;2830;50.656;7.568;2024-02-14T15:45:55;10.00;99.90
5617;DHT22;2830;50.656;7.568;2024-02-14T15:48:24;10.00;99.90
5617;DHT22;2830;50.656;7.568;2024-02-14T15:50:53;10.00;99.90
5617;DHT22;2830;50.656;7.568;2024-02-14T15:53:21;10.00;99.90
5617;DHT22;2830;50.656;7.568;2024-02-14T15:55:48;10.00;99.90
5617;DHT22;2830;50.656;7.568;2024-02-14T15:58:15;10.00;99.90
5617;DHT22;2830;50.656;7.568;2024-02-14T16:00:42;10.00;99.90
5617;DHT22;2830;50.656;7.568;2024-02-14T16:03:09;9.90;99.90
5617;DHT22;2830;50.656;7.568;2024-02-14T16:05:39;9.90;99.90
5617;DHT22;2830;50.656;7.568;2024-02-14T16:08:06;9.90;99.90
5617;DHT22;2830;50.656;7.568;2024-02-14T16:10:33;9.90;99.90
5617;DHT22;2830;50.656;7.568;2024-02-14T16:13:01;10.00;99.90
5617;DHT22;2830;50.656;7.568;2024-02-14T16:15:28;9.90;99.90
5617;DHT22;2830;50.656;7.568;2024-02-14T16:17:55;9.90;99.90
5617;DHT22;2830;50.656;7.568;2024-02-14T16:20:22;9.90;99.90